Time;durP1;ratioP1;P1;durP2;ratioP2;P2;SDS_P1;SDS_P2;PMS_P1;PMS_P2;Temp;Humidity;BMP_temperature;BMP_pressure;BME280_temperature;BME280_humidity;BME280_pressure;Samples;Min_cycle;Max_cycle;Signal;HPM_P1;HPM_P2
2022/09/26 00:01:17;;;;;;;10.33;5.37;;;8.70;99.90;;;;;;5015535;28;20649;-71
2022/09/26 00:03:45;;;;;;;6.70;5.20;;;8.70;99.90;;;;;;5014347;28;20180;-71
2022/09/26 00:06:12;;;;;;;6.87;5.40;;;8.70;99.90;;;;;;5020290;28;20650;-71
2022/09/26 00:08:38;;;;;;;6.07;4.63;;;8.70;99.90;;;;;;5053545;28;20178;-71
2022/09/26 00:11:07;;;;;;;5.67;4.50;;;8.60;99.90;;;;;;5054298;28;20202;-71
2022/09/26 00:13:35;;;;;;;5.23;4.73;;;8.60;99.90;;;;;;5055046;28;20224;-71
2022/09/26 00:16:01;;;;;;;6.53;4.67;;;8.70;99.90;;;;;;5049559;28;20244;-71
2022/09/26 00:18:27;;;;;;;8.30;4.80;;;8.70;99.90;;;;;;5035331;28;20185;-71
2022/09/26 00:21:00;;;;;;;8.40;5.40;;;8.70;99.90;;;;;;5033455;28;20245;-71
2022/09/26 00:23:26;;;;;;;7.17;4.77;;;8.70;99.90;;;;;;5033985;28;20175;-71
2022/09/26 00:25:52;;;;;;;5.33;4.50;;;8.60;99.90;;;;;;5034688;28;20182;-71
2022/09/26 00:28:18;;;;;;;6.07;4.83;;;8.70;99.90;;;;;;5025026;28;20190;-71
2022/09/26 00:30:44;;;;;;;8.80;5.03;;;8.70;99.90;;;;;;5013631;28;20573;-71
2022/09/26 00:33:12;;;;;;;6.33;4.90;;;8.50;99.90;;;;;;5015328;28;20187;-71
2022/09/26 00:35:38;;;;;;;6.33;4.40;;;8.60;99.90;;;;;;5015367;28;20184;-71
2022/09/26 00:38:04;;;;;;;5.63;4.67;;;8.60;99.90;;;;;;5050362;28;20669;-72
2022/09/26 00:40:31;;;;;;;7.47;5.00;;;8.60;99.90;;;;;;5054310;28;20206;-71
2022/09/26 00:42:58;;;;;;;6.20;5.10;;;8.60;99.90;;;;;;5054741;28;20178;-72
2022/09/26 00:45:32;;;;;;;7.83;4.70;;;8.70;99.90;;;;;;5053152;28;20198;-71
2022/09/26 00:48:05;;;;;;;9.37;5.07;;;8.70;99.90;;;;;;5014036;28;20669;-72
2022/09/26 00:50:39;;;;;;;5.00;4.50;;;8.70;99.90;;;;;;5013711;28;20242;-72
2022/09/26 00:53:22;;;;;;;7.10;5.10;;;8.70;99.90;;;;;;5013388;28;20616;-72
2022/09/26 00:55:55;;;;;;;7.67;5.03;;;8.70;99.90;;;;;;5013651;28;20180;-72
2022/09/26 00:58:34;;;;;;;7.80;4.83;;;8.60;99.90;;;;;;5025155;28;20214;-72
2022/09/26 01:01:00;;;;;;;7.57;5.00;;;8.60;99.90;;;;;;5032848;28;20693;-72
2022/09/26 01:03:28;;;;;;;6.43;4.80;;;8.60;99.90;;;;;;5032944;28;20191;-72
2022/09/26 01:05:54;;;;;;;10.07;5.30;;;8.60;99.90;;;;;;5034716;28;20171;-71
2022/09/26 01:08:28;;;;;;;7.90;5.07;;;8.50;99.90;;;;;;5054274;28;20171;-72
2022/09/26 01:10:56;;;;;;;7.83;4.57;;;8.50;99.90;;;;;;5053779;28;20567;-71
2022/09/26 01:13:22;;;;;;;7.63;4.90;;;8.50;99.90;;;;;;5053783;28;20227;-72
2022/09/26 01:15:47;;;;;;;7.87;5.10;;;8.50;99.90;;;;;;5049920;28;20190;-71
2022/09/26 01:18:13;;;;;;;6.23;4.70;;;8.50;99.90;;;;;;5032517;28;20179;-72
2022/09/26 01:20:50;;;;;;;7.43;5.20;;;8.50;99.90;;;;;;5033625;28;20218;-72
2022/09/26 01:23:46;;;;;;;9.27;5.23;;;8.50;99.90;;;;;;5032800;28;20575;-71
2022/09/26 01:26:53;;;;;;;5.50;4.67;;;8.40;99.90;;;;;;5007724;28;20187;-71
2022/09/26 01:29:38;;;;;;;5.50;4.77;;;8.30;99.90;;;;;;5015362;28;20208;-72
2022/09/26 01:32:47;;;;;;;7.00;4.70;;;8.30;99.90;;;;;;5012614;28;20183;-71
2022/09/26 01:35:26;;;;;;;5.93;5.20;;;8.30;99.90;;;;;;5012674;28;20172;-71
2022/09/26 01:38:00;;;;;;;7.37;5.00;;;8.30;99.90;;;;;;5045900;28;20196;-71
2022/09/26 01:40:41;;;;;;;8.57;5.20;;;8.40;99.90;;;;;;5052041;28;20288;-72
2022/09/26 01:43:12;;;;;;;6.33;4.97;;;8.40;99.90;;;;;;5053459;28;20567;-71
2022/09/26 01:45:43;;;;;;;6.57;5.33;;;8.40;99.90;;;;;;5050888;28;20251;-71
2022/09/26 01:48:17;;;;;;;7.37;5.50;;;8.40;99.90;;;;;;5033851;28;20170;-72
2022/09/26 01:50:56;;;;;;;6.60;5.20;;;8.40;99.90;;;;;;5032081;28;20687;-72
2022/09/26 01:53:34;;;;;;;6.60;5.33;;;8.40;99.90;;;;;;5033299;28;20171;-71
2022/09/26 01:56:09;;;;;;;7.93;4.90;;;8.40;99.90;;;;;;5033425;28;20167;-71
2022/09/26 01:58:56;;;;;;;6.33;5.23;;;8.40;99.90;;;;;;5021146;28;20188;-71
2022/09/26 02:01:26;;;;;;;9.97;5.80;;;8.50;99.90;;;;;;5013489;28;20203;-72
2022/09/26 02:03:57;;;;;;;10.87;5.50;;;8.50;99.90;;;;;;5012433;28;20250;-72
2022/09/26 02:06:34;;;;;;;8.63;5.27;;;8.50;99.90;;;;;;5021408;28;20187;-72
2022/09/26 02:09:20;;;;;;;10.40;5.30;;;8.50;99.90;;;;;;5053038;28;20194;-71
2022/09/26 02:11:49;;;;;;;6.83;5.43;;;8.50;99.90;;;;;;5053468;28;20167;-71
2022/09/26 02:14:31;;;;;;;7.73;5.73;;;8.60;99.90;;;;;;5051921;28;20269;-72
2022/09/26 02:17:04;;;;;;;6.87;5.13;;;8.60;99.90;;;;;;5041418;28;20194;-71
2022/09/26 02:19:48;;;;;;;7.83;5.27;;;8.60;99.90;;;;;;5031953;28;20202;-71
2022/09/26 02:22:14;;;;;;;9.40;5.33;;;8.70;99.90;;;;;;5033098;28;20195;-71
2022/09/26 02:24:40;;;;;;;8.07;5.47;;;8.80;99.90;;;;;;5031697;28;20179;-71
2022/09/26 02:27:06;;;;;;;6.67;5.07;;;8.80;99.90;;;;;;5031909;28;20206;-72
2022/09/26 02:29:33;;;;;;;6.13;4.90;;;8.80;99.90;;;;;;5012075;28;20580;-71
2022/09/26 02:32:15;;;;;;;5.70;5.10;;;8.90;99.90;;;;;;5013509;28;20733;-71
2022/09/26 02:34:44;;;;;;;8.30;5.40;;;9.00;99.90;;;;;;5015780;28;20222;-72
2022/09/26 02:37:12;;;;;;;7.47;5.00;;;9.00;99.90;;;;;;5037616;28;20212;-72
2022/09/26 02:39:39;;;;;;;9.10;5.33;;;9.10;99.90;;;;;;5055253;28;20210;-71
2022/09/26 02:42:41;;;;;;;10.80;5.50;;;9.10;99.90;;;;;;5056528;28;20206;-71
2022/09/26 02:45:30;;;;;;;7.63;5.27;;;9.10;99.90;;;;;;5056594;28;20190;-71
2022/09/26 02:48:04;;;;;;;7.10;5.63;;;9.10;99.90;;;;;;5015467;28;20176;-71
2022/09/26 02:50:45;;;;;;;6.17;5.50;;;9.20;99.90;;;;;;5015409;28;20206;-74
2022/09/26 02:53:42;;;;;;;8.80;5.83;;;9.10;99.90;;;;;;5015267;28;20176;-71
2022/09/26 02:56:30;;;;;;;9.53;5.50;;;9.20;99.90;;;;;;5015268;28;20302;-71
2022/09/26 02:59:01;;;;;;;12.10;5.90;;;9.20;99.90;;;;;;5031753;28;20262;-71
2022/09/26 03:01:42;;;;;;;9.23;6.07;;;9.20;99.90;;;;;;5036532;28;20651;-71
2022/09/26 03:04:20;;;;;;;9.50;7.00;;;9.20;99.90;;;;;;5036412;28;20229;-71
2022/09/26 03:06:52;;;;;;;17.70;7.67;;;9.30;99.90;;;;;;5043758;28;20228;-71
2022/09/26 03:09:20;;;;;;;11.10;7.87;;;9.30;99.90;;;;;;5054831;28;20234;-71
2022/09/26 03:11:47;;;;;;;12.00;8.47;;;9.30;99.90;;;;;;5054822;28;20183;-71
2022/09/26 03:14:15;;;;;;;13.67;8.27;;;9.30;99.90;;;;;;5054594;28;20647;-71
2022/09/26 03:16:43;;;;;;;13.43;9.50;;;9.40;99.90;;;;;;5046038;28;20183;-71
2022/09/26 03:19:17;;;;;;;16.60;9.67;;;9.40;99.90;;;;;;5034575;28;20293;-71
2022/09/26 03:21:44;;;;;;;14.83;9.43;;;9.50;99.90;;;;;;5034459;28;20763;-71
2022/09/26 03:24:11;;;;;;;18.87;10.47;;;9.50;99.90;;;;;;5035802;28;20172;-71
2022/09/26 03:26:37;;;;;;;14.73;10.13;;;9.60;99.90;;;;;;5035860;28;20198;-71
2022/09/26 03:29:03;;;;;;;15.00;9.93;;;9.60;99.90;;;;;;5019491;28;20206;-71
2022/09/26 03:31:30;;;;;;;15.17;10.50;;;9.60;99.90;;;;;;5016202;28;20267;-71
2022/09/26 03:33:55;;;;;;;20.23;10.73;;;9.70;99.90;;;;;;5014763;28;20687;-71
2022/09/26 03:36:22;;;;;;;15.30;10.70;;;9.70;99.90;;;;;;5023134;28;20190;-71
2022/09/26 03:38:48;;;;;;;15.93;10.87;;;9.70;99.90;;;;;;5055522;28;20185;-71
2022/09/26 03:41:14;;;;;;;18.03;11.53;;;9.70;99.90;;;;;;5055395;28;20206;-71
2022/09/26 03:43:42;;;;;;;13.50;11.33;;;9.70;99.90;;;;;;5055237;28;20304;-71
2022/09/26 03:46:10;;;;;;;18.60;11.40;;;9.70;99.90;;;;;;5048774;28;20742;-71
2022/09/26 03:48:36;;;;;;;17.00;11.80;;;9.80;99.90;;;;;;5035918;28;20258;-71
2022/09/26 03:51:03;;;;;;;16.97;11.50;;;9.80;99.90;;;;;;5033987;28;20199;-71
2022/09/26 03:53:33;;;;;;;18.63;12.13;;;9.80;99.90;;;;;;5033762;28;20537;-70
2022/09/26 03:56:13;;;;;;;17.63;12.43;;;9.80;99.90;;;;;;5033923;28;20270;-70
2022/09/26 03:58:39;;;;;;;17.90;12.40;;;9.80;99.90;;;;;;5021034;28;20202;-71
2022/09/26 04:01:14;;;;;;;17.30;13.07;;;9.80;99.90;;;;;;5015311;28;20298;-71
2022/09/26 04:03:41;;;;;;;16.83;12.00;;;9.90;99.90;;;;;;5014218;28;20207;-70
2022/09/26 04:06:08;;;;;;;19.37;13.13;;;9.90;99.90;;;;;;5020209;28;20675;-70
2022/09/26 04:08:36;;;;;;;17.37;12.83;;;9.90;99.90;;;;;;5053465;28;20231;-71
2022/09/26 04:11:13;;;;;;;21.43;14.20;;;9.90;99.90;;;;;;5053413;28;20352;-71
2022/09/26 04:13:40;;;;;;;17.93;13.27;;;9.90;99.90;;;;;;5053579;28;20209;-71
2022/09/26 04:16:08;;;;;;;19.00;14.13;;;9.90;99.90;;;;;;5048670;28;20195;-71
2022/09/26 04:18:34;;;;;;;21.07;14.13;;;9.90;99.90;;;;;;5034942;28;20179;-71
2022/09/26 04:21:06;;;;;;;20.13;13.13;;;9.90;99.90;;;;;;5034770;28;20328;-71
2022/09/26 04:23:34;;;;;;;19.13;14.53;;;9.90;99.90;;;;;;5033543;28;20179;-71
2022/09/26 04:26:08;;;;;;;17.07;13.70;;;9.90;99.90;;;;;;5034663;28;20186;-71
2022/09/26 04:28:34;;;;;;;19.90;14.10;;;9.90;99.90;;;;;;5021443;28;20183;-71
2022/09/26 04:31:01;;;;;;;20.80;13.30;;;9.90;99.90;;;;;;5015005;28;20668;-71
2022/09/26 04:33:28;;;;;;;21.53;13.13;;;9.90;99.90;;;;;;5015023;28;20208;-71
2022/09/26 04:35:54;;;;;;;20.70;14.30;;;9.90;99.90;;;;;;5016558;28;20200;-71
2022/09/26 04:38:20;;;;;;;19.17;14.37;;;9.90;99.90;;;;;;5054412;28;20179;-71
2022/09/26 04:40:46;;;;;;;24.37;14.00;;;9.90;99.90;;;;;;5053143;28;20260;-71
2022/09/26 04:43:12;;;;;;;20.17;14.47;;;9.90;99.90;;;;;;5054505;28;20193;-71
2022/09/26 04:45:44;;;;;;;24.13;16.43;;;9.90;99.90;;;;;;5053446;28;20195;-71
2022/09/26 04:48:10;;;;;;;18.90;15.53;;;9.90;99.90;;;;;;5033203;28;20178;-71
2022/09/26 04:50:36;;;;;;;22.23;15.87;;;9.90;99.90;;;;;;5034481;28;20663;-70
2022/09/26 04:53:02;;;;;;;20.13;16.33;;;9.90;99.90;;;;;;5032738;28;20179;-71
2022/09/26 04:55:28;;;;;;;25.73;16.97;;;9.90;99.90;;;;;;5032280;28;20229;-71
2022/09/26 04:57:54;;;;;;;28.03;15.93;;;9.90;99.90;;;;;;5033170;28;20648;-70
2022/09/26 05:00:19;;;;;;;22.93;15.77;;;10.00;99.90;;;;;;5033998;28;20568;-71
2022/09/26 05:02:48;;;;;;;24.17;16.23;;;9.90;99.90;;;;;;5037149;28;20229;-71
2022/09/26 05:05:14;;;;;;;20.77;14.97;;;9.90;99.90;;;;;;5036840;28;20183;-70
2022/09/26 05:07:43;;;;;;;25.50;15.23;;;9.90;99.90;;;;;;5049586;28;20646;-71
2022/09/26 05:10:09;;;;;;;24.37;15.97;;;9.90;99.90;;;;;;5055197;28;20190;-71
2022/09/26 05:12:38;;;;;;;21.73;15.80;;;9.90;99.90;;;;;;5055130;28;20648;-70
2022/09/26 05:15:08;;;;;;;23.10;15.57;;;9.90;99.90;;;;;;5054724;28;20181;-71
2022/09/26 05:17:37;;;;;;;20.93;14.90;;;9.90;99.90;;;;;;5035671;28;20224;-71
2022/09/26 05:20:09;;;;;;;16.93;13.97;;;9.90;99.90;;;;;;5032639;28;20199;-71
2022/09/26 05:22:35;;;;;;;17.50;13.50;;;10.00;99.90;;;;;;5034030;28;20560;-71
2022/09/26 05:27:47;;;;;;;21.93;13.50;;;10.00;99.90;;;;;;5028348;28;20195;-71
2022/09/26 05:30:13;;;;;;;18.10;13.53;;;10.00;99.90;;;;;;5012722;28;20195;-71
2022/09/26 05:32:40;;;;;;;20.03;13.63;;;10.00;99.90;;;;;;5014076;28;20230;-71
2022/09/26 05:35:06;;;;;;;20.60;13.17;;;10.00;99.90;;;;;;5014106;28;20183;-71
2022/09/26 05:37:32;;;;;;;20.40;13.80;;;10.10;99.90;;;;;;5040422;28;20280;-71
2022/09/26 05:42:42;;;;;;;21.83;12.60;;;10.10;99.90;;;;;;5053621;28;20248;-71
2022/09/26 05:45:08;;;;;;;19.03;12.20;;;10.10;99.90;;;;;;5053530;28;20666;-71
2022/09/26 05:47:35;;;;;;;16.73;12.53;;;10.10;99.90;;;;;;5035029;28;20226;-71
2022/09/26 05:50:08;;;;;;;17.53;12.17;;;10.10;99.90;;;;;;5033513;28;20226;-71
2022/09/26 05:52:38;;;;;;;16.70;11.70;;;10.10;99.90;;;;;;5032179;28;20194;-71
2022/09/26 05:55:04;;;;;;;17.43;12.40;;;10.10;99.90;;;;;;5033579;28;20199;-71
2022/09/26 05:57:30;;;;;;;15.20;12.07;;;10.10;99.90;;;;;;5030059;28;20270;-70
2022/09/26 05:59:55;;;;;;;14.93;10.73;;;10.10;99.90;;;;;;5013814;28;20279;-71
2022/09/26 06:02:21;;;;;;;15.57;11.37;;;10.10;99.90;;;;;;5013693;28;20200;-71
2022/09/26 06:04:48;;;;;;;16.30;11.93;;;10.10;99.90;;;;;;5013705;28;20183;-71
2022/09/26 06:07:14;;;;;;;15.93;11.20;;;10.10;99.90;;;;;;5036738;28;20205;-71
2022/09/26 06:09:39;;;;;;;13.60;10.77;;;10.20;99.90;;;;;;5055998;28;20194;-71
2022/09/26 06:12:05;;;;;;;14.53;10.40;;;10.20;99.90;;;;;;5057470;28;20174;-71
2022/09/26 06:14:31;;;;;;;14.80;10.97;;;10.20;99.90;;;;;;5057192;28;20635;-71
2022/09/26 06:16:56;;;;;;;12.37;10.33;;;10.20;99.90;;;;;;5045250;28;20186;-71
2022/09/26 06:19:22;;;;;;;13.53;10.73;;;10.20;99.90;;;;;;5037256;28;20198;-71
2022/09/26 06:21:48;;;;;;;15.87;10.20;;;10.20;99.90;;;;;;5036828;28;20598;-71
2022/09/26 06:24:14;;;;;;;18.10;10.60;;;10.30;99.90;;;;;;5037158;28;20571;-71
2022/09/26 06:26:39;;;;;;;12.87;9.73;;;10.30;99.90;;;;;;5037055;28;20174;-71
2022/09/26 06:29:06;;;;;;;16.20;9.80;;;10.30;99.90;;;;;;5020510;28;20210;-71
2022/09/26 06:31:32;;;;;;;13.83;9.40;;;10.40;99.90;;;;;;5017578;28;20522;-71
2022/09/26 06:34:00;;;;;;;15.07;10.03;;;10.40;99.90;;;;;;5015865;28;20187;-71
2022/09/26 06:36:26;;;;;;;15.30;10.30;;;10.50;99.90;;;;;;5026324;28;20190;-70
2022/09/26 06:38:54;;;;;;;14.20;9.63;;;10.50;99.90;;;;;;5055115;28;20189;-70
2022/09/26 06:41:20;;;;;;;16.50;10.53;;;10.60;99.90;;;;;;5055118;28;20686;-70
2022/09/26 06:43:47;;;;;;;15.47;9.90;;;10.70;99.90;;;;;;5056689;28;20181;-70
2022/09/26 06:46:14;;;;;;;11.47;9.13;;;10.70;99.90;;;;;;5049248;28;20558;-71
2022/09/26 06:48:40;;;;;;;14.07;8.57;;;10.90;99.90;;;;;;5035367;28;20175;-72
2022/09/26 06:51:07;;;;;;;13.77;9.13;;;10.90;99.90;;;;;;5035242;28;20682;-71
2022/09/26 06:53:34;;;;;;;14.07;8.90;;;11.00;99.90;;;;;;5036637;28;20699;-70
2022/09/26 06:56:01;;;;;;;11.47;7.73;;;11.10;99.90;;;;;;5036686;28;20170;-69
2022/09/26 06:58:26;;;;;;;10.63;8.10;;;11.20;99.90;;;;;;5025151;28;20194;-70
2022/09/26 07:00:52;;;;;;;10.63;7.63;;;11.30;99.90;;;;;;5016635;28;20233;-69
2022/09/26 07:03:18;;;;;;;11.53;8.20;;;11.40;99.90;;;;;;5016060;28;20679;-70
2022/09/26 07:05:45;;;;;;;11.20;7.93;;;11.40;99.90;;;;;;5017162;28;20175;-70
2022/09/26 07:08:11;;;;;;;12.80;8.07;;;11.40;99.90;;;;;;5054175;28;20252;-70
2022/09/26 07:10:37;;;;;;;10.07;8.00;;;11.40;99.90;;;;;;5056070;28;20662;-70
2022/09/26 07:13:08;;;;;;;9.03;7.30;;;11.40;99.90;;;;;;5056461;28;20536;-71
2022/09/26 07:15:35;;;;;;;8.80;7.90;;;11.40;99.90;;;;;;5055826;28;20242;-70
2022/09/26 07:18:02;;;;;;;11.00;7.27;;;11.40;99.90;;;;;;5036211;28;20512;-70
2022/09/26 07:20:31;;;;;;;9.33;6.77;;;11.40;99.90;;;;;;5035350;28;20226;-67
2022/09/26 07:23:01;;;;;;;9.93;6.70;;;11.50;99.90;;;;;;5034420;28;20179;-69
2022/09/26 07:25:28;;;;;;;14.03;6.70;;;11.50;99.90;;;;;;5035823;28;20631;-74
2022/09/26 07:27:53;;;;;;;12.57;7.03;;;11.60;99.90;;;;;;5029307;28;20207;-70
2022/09/26 07:30:19;;;;;;;7.63;6.17;;;11.70;99.90;;;;;;5016088;28;20683;-70
2022/09/26 07:32:46;;;;;;;10.47;6.47;;;11.70;99.90;;;;;;5015912;28;20551;-70
2022/09/26 07:35:14;;;;;;;6.93;5.63;;;11.60;99.90;;;;;;5014764;28;20176;-68
2022/09/26 07:37:41;;;;;;;7.47;5.53;;;11.70;99.90;;;;;;5045110;28;20550;-72
2022/09/26 07:40:07;;;;;;;9.17;5.80;;;11.70;99.90;;;;;;5055640;28;20222;-76
2022/09/26 07:42:33;;;;;;;9.30;6.20;;;11.70;99.90;;;;;;5054388;28;20202;-72
2022/09/26 07:44:59;;;;;;;8.80;5.10;;;11.70;99.90;;;;;;5054274;28;20688;-75
2022/09/26 07:50:13;;;;;;;7.50;5.07;;;11.80;99.90;;;;;;5035533;28;20221;-72
2022/09/26 07:52:43;;;;;;;8.27;5.20;;;11.80;99.90;;;;;;5035921;28;20202;-72
2022/09/26 07:55:11;;;;;;;7.17;5.13;;;11.80;99.90;;;;;;5035423;28;20163;-73
2022/09/26 07:57:37;;;;;;;7.67;5.00;;;11.80;99.90;;;;;;5031349;28;20211;-72
2022/09/26 08:00:07;;;;;;;7.03;5.27;;;11.90;99.90;;;;;;5016121;28;20210;-73
2022/09/26 08:02:34;;;;;;;9.20;4.63;;;11.90;99.90;;;;;;5016007;28;20222;-73
2022/09/26 08:05:04;;;;;;;8.63;4.80;;;11.90;99.90;;;;;;5015637;28;20164;-72
2022/09/26 08:07:31;;;;;;;8.33;4.67;;;11.90;99.90;;;;;;5041416;28;20186;-72
2022/09/26 08:09:57;;;;;;;5.63;4.80;;;11.90;99.90;;;;;;5054816;28;20191;-72
2022/09/26 08:12:25;;;;;;;7.07;4.77;;;11.90;99.90;;;;;;5053845;28;20223;-72
2022/09/26 08:14:51;;;;;;;6.33;4.70;;;11.90;99.90;;;;;;5055109;28;20174;-72
2022/09/26 08:17:19;;;;;;;8.00;4.67;;;11.90;99.90;;;;;;5038835;28;20264;-72
2022/09/26 08:19:44;;;;;;;5.40;4.10;;;11.80;99.90;;;;;;5034972;28;20277;-72
2022/09/26 08:22:11;;;;;;;7.67;4.70;;;11.90;99.90;;;;;;5034981;28;20322;-72
2022/09/26 08:24:37;;;;;;;6.50;4.30;;;11.90;99.90;;;;;;5033640;28;20307;-72
2022/09/26 08:27:04;;;;;;;9.70;4.87;;;11.90;99.90;;;;;;5034885;28;20254;-72
2022/09/26 08:29:31;;;;;;;5.90;4.07;;;11.90;99.90;;;;;;5013664;28;20287;-73
2022/09/26 08:31:57;;;;;;;7.93;4.63;;;11.90;99.90;;;;;;5012949;28;20184;-72
2022/09/26 08:34:23;;;;;;;5.23;4.07;;;11.80;99.90;;;;;;5014929;28;20182;-72
2022/09/26 08:36:53;;;;;;;6.67;4.13;;;11.80;99.90;;;;;;5030328;28;20632;-71
2022/09/26 08:39:22;;;;;;;8.53;4.60;;;11.80;99.90;;;;;;5054328;28;20197;-71
2022/09/26 08:42:05;;;;;;;5.60;4.23;;;11.80;99.90;;;;;;5054907;28;20198;-71
2022/09/26 08:44:53;;;;;;;4.33;3.93;;;11.80;99.90;;;;;;5054246;28;20178;-71
2022/09/26 08:47:49;;;;;;;8.10;4.43;;;11.90;99.90;;;;;;5038194;28;20193;-73
2022/09/26 08:50:31;;;;;;;5.13;4.37;;;11.80;99.90;;;;;;5034363;28;20270;-71
2022/09/26 08:53:19;;;;;;;7.03;4.37;;;11.70;99.90;;;;;;5034241;28;20175;-71
2022/09/26 08:55:47;;;;;;;4.30;3.87;;;11.70;99.90;;;;;;5034466;28;20612;-71
2022/09/26 08:58:18;;;;;;;5.97;4.37;;;11.70;99.90;;;;;;5024899;28;20198;-71
2022/09/26 09:00:48;;;;;;;5.37;4.33;;;11.70;99.90;;;;;;5013133;28;20223;-71
2022/09/26 09:03:23;;;;;;;8.33;4.23;;;11.70;99.90;;;;;;5014568;28;20176;-72
2022/09/26 09:05:54;;;;;;;5.83;4.30;;;11.70;99.90;;;;;;5014904;28;20560;-72
2022/09/26 09:08:29;;;;;;;5.33;4.33;;;11.60;99.90;;;;;;5012917;28;20180;-70
2022/09/26 09:11:01;;;;;;;6.10;3.93;;;11.60;99.90;;;;;;5014179;28;20678;-71
2022/09/26 09:13:50;;;;;;;6.23;4.37;;;11.60;99.90;;;;;;5012956;28;20270;-72
2022/09/26 09:16:28;;;;;;;4.67;4.17;;;11.60;99.90;;;;;;5021200;28;20186;-71
2022/09/26 09:19:21;;;;;;;7.83;4.77;;;11.50;99.90;;;;;;5034410;28;20187;-72
2022/09/26 09:22:25;;;;;;;5.03;4.43;;;11.40;99.90;;;;;;5032721;28;20234;-72
2022/09/26 09:25:19;;;;;;;5.37;3.90;;;11.40;99.90;;;;;;5034176;28;20205;-72
2022/09/26 09:27:57;;;;;;;5.53;4.83;;;11.30;99.90;;;;;;5027477;28;20275;-72
2022/09/26 09:30:27;;;;;;;5.67;4.40;;;11.30;99.90;;;;;;5013152;28;20195;-72
2022/09/26 09:33:19;;;;;;;4.87;4.37;;;11.30;99.90;;;;;;5013519;28;20171;-72
2022/09/26 09:35:57;;;;;;;7.57;4.50;;;11.20;99.90;;;;;;5013111;28;20188;-72
2022/09/26 09:38:31;;;;;;;9.30;5.10;;;11.20;99.90;;;;;;5014083;28;20250;-71
2022/09/26 09:41:23;;;;;;;6.43;5.07;;;11.20;99.90;;;;;;5012646;28;20211;-72
2022/09/26 09:43:52;;;;;;;5.27;4.77;;;11.20;99.90;;;;;;5014409;28;20164;-71
2022/09/26 09:46:37;;;;;;;7.20;5.30;;;11.10;99.90;;;;;;5020848;28;20191;-70
2022/09/26 09:49:16;;;;;;;10.30;5.10;;;11.10;99.90;;;;;;5032253;28;20167;-71
2022/09/26 09:52:18;;;;;;;6.00;4.43;;;11.10;99.90;;;;;;5032433;28;20572;-70
2022/09/26 09:55:28;;;;;;;8.33;4.43;;;11.20;99.90;;;;;;5033352;28;20162;-70
2022/09/26 09:58:01;;;;;;;9.47;4.87;;;11.20;99.90;;;;;;5002886;28;20195;-70
2022/09/26 10:00:26;;;;;;;7.57;4.90;;;11.20;99.90;;;;;;5012476;28;20195;-70
2022/09/26 10:03:03;;;;;;;9.73;4.97;;;11.20;99.90;;;;;;5013964;28;20218;-70
2022/09/26 10:05:41;;;;;;;7.33;4.23;;;11.20;99.90;;;;;;5014430;28;20210;-70
2022/09/26 10:08:45;;;;;;;4.93;4.43;;;11.20;99.90;;;;;;5029797;28;20184;-70
2022/09/26 10:11:29;;;;;;;7.97;4.33;;;11.30;99.90;;;;;;5033080;28;20178;-70
2022/09/26 10:14:01;;;;;;;5.30;4.40;;;11.30;99.90;;;;;;5032311;28;20178;-70
2022/09/26 10:16:29;;;;;;;5.40;4.13;;;11.30;99.90;;;;;;5033619;28;20266;-70
2022/09/26 10:18:55;;;;;;;6.47;4.47;;;11.40;99.90;;;;;;5033522;28;20206;-70
2022/09/26 10:21:34;;;;;;;7.10;4.43;;;11.40;99.90;;;;;;5032745;28;20206;-70
2022/09/26 10:24:03;;;;;;;4.00;3.60;;;11.30;99.90;;;;;;5033376;28;20171;-70
2022/09/26 10:26:34;;;;;;;8.17;4.30;;;11.30;99.90;;;;;;5032885;28;20249;-70
2022/09/26 10:29:06;;;;;;;9.40;4.60;;;11.30;99.90;;;;;;5032563;28;20237;-69
2022/09/26 10:31:39;;;;;;;6.50;4.50;;;11.20;99.90;;;;;;5034575;28;20159;-70
2022/09/26 10:34:19;;;;;;;9.53;4.43;;;11.10;99.90;;;;;;5033913;28;20266;-70
2022/09/26 10:36:45;;;;;;;4.53;4.07;;;11.10;99.90;;;;;;5041717;28;20235;-70
2022/09/26 10:42:03;;;;;;;7.90;4.87;;;11.00;99.90;;;;;;5053177;28;20198;-69
2022/09/26 10:44:33;;;;;;;6.30;4.40;;;10.90;99.90;;;;;;5053575;28;20353;-70
2022/09/26 10:47:08;;;;;;;8.83;4.40;;;10.90;99.90;;;;;;5040985;28;20205;-70
2022/09/26 10:49:49;;;;;;;6.77;4.70;;;11.00;99.90;;;;;;5032944;28;20188;-70
2022/09/26 10:52:22;;;;;;;8.40;4.83;;;11.00;99.90;;;;;;5031851;28;20194;-70
2022/09/26 10:55:08;;;;;;;8.27;4.67;;;11.00;99.90;;;;;;5035232;28;20187;-70
2022/09/26 10:57:39;;;;;;;4.77;4.20;;;11.00;99.90;;;;;;5032066;28;20188;-69
2022/09/26 11:00:07;;;;;;;6.97;4.37;;;11.10;99.90;;;;;;5016822;28;20200;-69
2022/09/26 11:02:35;;;;;;;7.33;4.30;;;11.10;99.90;;;;;;5015101;28;20200;-69
2022/09/26 11:07:51;;;;;;;5.43;3.90;;;11.10;99.90;;;;;;5049134;28;20194;-70
2022/09/26 11:10:24;;;;;;;7.13;3.90;;;11.10;99.90;;;;;;5054524;28;20690;-70
2022/09/26 11:13:01;;;;;;;5.97;3.73;;;11.20;99.90;;;;;;5054937;28;20203;-70
2022/09/26 11:15:27;;;;;;;4.03;3.73;;;11.20;99.90;;;;;;5054802;28;20266;-70
2022/09/26 11:17:54;;;;;;;6.50;3.97;;;11.30;99.90;;;;;;5036299;28;20549;-69
2022/09/26 11:20:49;;;;;;;6.00;3.60;;;11.30;99.90;;;;;;5035695;28;20195;-70
2022/09/26 11:23:36;;;;;;;4.30;3.50;;;11.30;99.90;;;;;;5029271;28;20202;-69
2022/09/26 11:26:07;;;;;;;5.20;4.20;;;11.40;99.90;;;;;;5035920;28;20159;-70
2022/09/26 11:28:43;;;;;;;4.00;3.70;;;11.50;99.90;;;;;;5023887;28;20663;-70
2022/09/26 11:31:25;;;;;;;4.63;3.80;;;11.50;99.90;;;;;;5015848;28;20328;-70
2022/09/26 11:33:51;;;;;;;3.70;3.40;;;11.50;99.90;;;;;;5015766;28;20168;-70
2022/09/26 11:37:04;;;;;;;6.03;3.57;;;11.50;99.90;;;;;;5023684;28;20189;-70
2022/09/26 11:39:33;;;;;;;7.53;3.53;;;11.50;99.90;;;;;;5008448;28;20206;-70
2022/09/26 11:42:08;;;;;;;4.77;3.80;;;11.50;99.90;;;;;;5054380;28;20272;-70
2022/09/26 11:44:59;;;;;;;5.20;3.90;;;11.60;99.90;;;;;;5054093;28;20272;-70
2022/09/26 11:48:11;;;;;;;3.83;3.53;;;11.60;99.90;;;;;;5039979;28;20581;-71
2022/09/26 11:51:02;;;;;;;4.10;3.20;;;11.60;99.90;;;;;;5031976;28;20229;-72
2022/09/26 11:54:01;;;;;;;3.50;3.20;;;11.60;99.90;;;;;;5035559;28;20198;-71
2022/09/26 11:56:36;;;;;;;4.00;3.60;;;11.60;99.90;;;;;;5035106;28;20178;-72
2022/09/26 11:59:12;;;;;;;4.27;3.40;;;11.70;99.90;;;;;;5018231;28;20187;-72
2022/09/26 12:01:54;;;;;;;4.20;3.73;;;11.70;99.90;;;;;;5016231;28;20587;-70
2022/09/26 12:04:53;;;;;;;4.50;3.30;;;11.80;99.90;;;;;;5015908;28;20203;-71
2022/09/26 12:07:51;;;;;;;7.47;3.67;;;11.80;99.90;;;;;;5040253;28;20562;-69
2022/09/26 12:10:39;;;;;;;7.20;4.17;;;11.90;99.90;;;;;;5054529;28;20240;-68
2022/09/26 12:13:33;;;;;;;4.37;3.60;;;12.00;99.90;;;;;;5053915;28;20300;-68
2022/09/26 12:16:05;;;;;;;4.57;3.47;;;12.20;99.90;;;;;;5050764;28;20183;-68
2022/09/26 12:18:45;;;;;;;3.47;3.20;;;12.30;99.90;;;;;;5033478;28;20620;-68
2022/09/26 12:21:31;;;;;;;4.10;3.37;;;12.40;99.90;;;;;;5034652;28;20207;-68
2022/09/26 12:24:09;;;;;;;4.10;3.30;;;12.50;99.90;;;;;;5033224;28;20695;-68
2022/09/26 12:26:50;;;;;;;6.00;3.60;;;12.60;99.90;;;;;;5034875;28;20281;-70
2022/09/26 12:29:36;;;;;;;3.77;3.37;;;12.60;99.90;;;;;;5016845;28;20568;-70
2022/09/26 12:32:26;;;;;;;5.67;3.83;;;12.70;99.90;;;;;;5014946;28;20159;-70
2022/09/26 12:35:28;;;;;;;5.30;3.20;;;12.70;99.90;;;;;;5013640;28;20179;-71
2022/09/26 12:38:13;;;;;;;3.43;3.13;;;12.70;99.90;;;;;;5049049;28;20189;-71
2022/09/26 12:41:23;;;;;;;5.37;3.43;;;12.70;99.90;;;;;;5054332;28;20568;-69
2022/09/26 12:43:58;;;;;;;5.70;3.10;;;12.70;99.90;;;;;;4995941;28;20270;-69
2022/09/26 12:46:39;;;;;;;3.53;3.20;;;12.70;99.90;;;;;;4988657;28;20239;-69
2022/09/26 12:49:47;;;;;;;9.30;3.60;;;12.60;99.90;;;;;;5019521;28;20187;-69
2022/09/26 12:52:46;;;;;;;5.20;3.30;;;12.70;99.90;;;;;;5028666;28;20262;-69
2022/09/26 12:55:40;;;;;;;5.27;3.30;;;12.70;99.90;;;;;;5009653;28;20281;-70
2022/09/26 12:58:11;;;;;;;3.73;3.20;;;12.90;99.90;;;;;;5025942;28;20250;-69
2022/09/26 13:00:46;;;;;;;3.77;3.37;;;12.90;99.90;;;;;;5015073;28;20206;-69
2022/09/26 13:03:40;;;;;;;5.03;3.07;;;12.90;99.90;;;;;;5014250;28;20209;-69
2022/09/26 13:06:17;;;;;;;3.37;2.93;;;13.00;99.90;;;;;;5018920;28;20160;-69
2022/09/26 13:09:10;;;;;;;3.63;3.33;;;13.00;99.90;;;;;;5053636;28;20249;-70
2022/09/26 13:12:04;;;;;;;6.93;3.30;;;12.90;99.90;;;;;;5052455;28;20181;-69
2022/09/26 13:14:33;;;;;;;3.20;3.00;;;12.80;99.90;;;;;;5054165;28;20162;-70
2022/09/26 13:17:23;;;;;;;7.30;3.70;;;12.80;99.90;;;;;;5040888;28;20183;-69
2022/09/26 13:20:02;;;;;;;3.50;3.20;;;12.80;99.90;;;;;;5032444;28;20226;-69
2022/09/26 13:22:34;;;;;;;5.47;3.40;;;12.70;99.90;;;;;;5031341;28;20440;-71
2022/09/26 13:25:32;;;;;;;3.63;3.33;;;12.70;99.90;;;;;;5032349;28;20175;-71
2022/09/26 13:28:09;;;;;;;3.43;3.17;;;12.60;99.90;;;;;;5025171;28;20674;-70
2022/09/26 13:30:41;;;;;;;6.20;3.53;;;12.50;99.90;;;;;;5013911;28;20195;-69
2022/09/26 13:33:32;;;;;;;3.93;3.63;;;12.40;99.90;;;;;;5013865;28;20168;-69